Date,TemperatureHighF,TemperatureAvgF,TemperatureLowF,DewpointHighF,DewpointAvgF,DewpointLowF,HumidityHigh,HumidityAvg,HumidityLow,PressureMaxIn,PressureMinIn,WindSpeedMaxMPH,WindSpeedAvgMPH,GustSpeedMaxMPH,PrecipitationSumIn
2013-2-1,44.6,36.8,26.6,27.5,6.2,-13.4,69,35,8,30.17,29.81,12,5,0,0.48
2013-2-2,42.8,31.6,19.4,35.1,20.2,2.6,98,68,19,30.19,29.88,9,3,0,0.91
2013-2-3,53.6,40.9,32.0,37.5,29.1,22.0,98,67,30,29.87,29.72,19,6,0,0.01
2013-2-4,48.2,37.6,28.4,29.9,25.2,20.9,86,63,36,29.96,29.84,5,2,0,0.00
2013-2-5,62.6,45.6,30.2,44.8,36.2,27.1,98,72,34,29.84,29.74,15,4,0,0.00
2013-2-6,68.0,50.6,35.6,45.7,29.3,12.1,98,56,12,30.00,29.83,8,2,0,0.44
2013-2-7,50.0,45.1,42.8,42.3,33.6,22.2,98,69,37,30.04,29.79,13,7,0,1.51
2013-2-8,60.8,47.4,37.4,49.2,38.9,25.2,98,75,39,29.95,29.74,10,4,0,0.00
2013-2-9,60.8,44.3,28.4,29.2,24.5,15.3,85,52,17,30.14,29.93,6,2,0,0.00
2013-2-10,57.2,46.3,35.6,45.9,32.8,22.3,98,62,34,30.24,29.99,9,3,0,1.07
2013-2-11,55.4,49.9,46.4,54.8,49.3,45.9,98,98,93,29.99,29.85,6,2,0,0.35
2013-2-14,51.8,41.8,32.0,34.4,32.7,28.9,89,72,47,29.88,29.80,6,2,0,0.00
2013-2-15,62.6,45.5,28.4,37.8,32.2,27.9,98,66,31,29.92,29.76,14,3,0,0.00
2013-2-16,44.6,36.6,28.4,34.8,26.3,11.7,89,67,37,29.88,29.67,13,4,0,0.41
2013-2-17,46.4,34.0,26.6,17.8,7.0,-3.2,67,35,13,30.09,29.88,14,5,0,0.00
2013-2-18,55.4,39.5,23.0,25.7,20.2,13.9,86,49,25,30.19,30.03,11,2,0,0.00
2013-2-19,53.6,41.5,35.6,44.8,31.1,14.1,98,70,35,30.03,29.73,13,3,0,0.76
2013-2-20,57.2,41.7,26.6,20.5,12.6,-0.2,64,33,12,29.96,29.86,7,2,0,0.00
2013-2-21,59.0,44.2,28.4,38.6,18.5,7.1,85,42,14,30.04,29.89,9,3,0,0.26
2013-2-22,42.8,39.0,37.4,40.5,37.2,-54.7,98,96,82,30.07,29.92,11,5,0,0.76
2013-2-23,46.4,41.4,37.4,44.2,40.7,36.9,98,97,92,29.93,29.67,6,2,0,0.76
2013-2-24,68.0,51.1,39.2,46.2,37.8,27.8,98,67,26,29.83,29.69,9,3,0,0.01
2013-2-25,48.2,42.6,35.6,33.6,27.4,23.8,90,56,45,29.96,29.81,12,6,0,0.04
2013-2-26,44.6,38.1,33.8,44.1,37.4,31.5,98,97,88,29.82,29.42,15,6,0,1.15
2013-2-27,57.2,46.8,37.4,37.7,35.0,31.6,88,65,47,29.65,29.51,13,6,0,0.00
2013-2-28,51.8,41.4,30.2,34.7,26.3,22.7,78,55,40,29.74,29.58,14,5,0,0.00